Observations for Trim Market St
| Time | AQI | Temp °C | Hum % | Pres Pa | CO μg/m³ | H₂S μg/m³ | NO μg/m³ | NO₂ μg/m³ | O₃ μg/m³ | SO₂ μg/m³ | PM1 μg/m³ | PM2.5 μg/m³ | PM10 μg/m³ |
|---|---|---|---|---|---|---|---|---|---|---|---|---|---|
| Tuesday 11 August 2026 | |||||||||||||
| 18:15 | 3 | 32.5 | 24 | 66,410 | 0 | 23.34 | 0.36 | 27.05 | 63 | 1.02 | 0.71 | 4.66 | 5.12 |
| 18:13 | 3 | 32.6 | 24 | 66,396 | 0 | 25.22 | 0.37 | 27.35 | 67.59 | 1.52 | 0.71 | 5.22 | 5.74 |
| 18:12 | 3 | 32.6 | 24 | 66,416 | 0 | 26.67 | 0.4 | 39.94 | 63.06 | 1.07 | 0.71 | 4.68 | 5.15 |
| 18:09 | 3 | 32.8 | 23 | 66,439 | 0 | 22.89 | 0.41 | 24.37 | 59.24 | 1.39 | 3.56 | 8.56 | 11.14 |
| 18:08 | 3 | 32.9 | 23 | 66,445 | 0 | 26.84 | 0.41 | 36.34 | 63.21 | 1.69 | 1.43 | 5.25 | 5.78 |
| 18:07 | 3 | 32.9 | 23 | 66,445 | 0 | 21.7 | 0.4 | 32.11 | 52.8 | 1.32 | 2.14 | 5.26 | 5.79 |
| 18:06 | 3 | 33 | 23 | 66,451 | 0 | 27.35 | 0.44 | 42.88 | 56.48 | 1.49 | 1.43 | 5.26 | 5.79 |
| 18:03 | 3 | 33.2 | 23 | 66,459 | 0 | 30.03 | 0.98 | 66.2 | 45.57 | 0.66 | 0 | 4.18 | 4.6 |
| 18:00 | 3 | 33.5 | 22 | 66,491 | 0 | 24.22 | 0.77 | 39.97 | 48.87 | 0.94 | 0 | 4.75 | 5.22 |
| 17:59 | 3 | 33.6 | 22 | 66,503 | 0 | 30.22 | 0.71 | 77.64 | 40.35 | 1.03 | 0.71 | 4.2 | 4.62 |
| 17:56 | 3 | 33.9 | 22 | 66,515 | 0 | 19.64 | 0.39 | 27.35 | 54.83 | 2.22 | 0 | 4.21 | 4.63 |
| 17:48 | 3 | 34.8 | 21 | 66,578 | 0 | 21.52 | 0.3 | 48.75 | 49.16 | 1.71 | 0 | 3.7 | 4.07 |
| 17:47 | 3 | 35 | 21 | 66,600 | 0 | 20.26 | 0.27 | 27.64 | 59.04 | 3.41 | 0 | 4.26 | 4.69 |
| 17:46 | 3 | 35.1 | 21 | 66,629 | 0 | 20.49 | 0.19 | 17.98 | 55.83 | 4.17 | 0 | 4.26 | 4.69 |
| 17:45 | 3 | 35.2 | 21 | 66,665 | 0 | 23.59 | 0.16 | 28.14 | 58.73 | 3.16 | 0.71 | 4.82 | 5.3 |
| 17:44 | 3 | 35.4 | 20 | 66,657 | 0 | 20.98 | 0.13 | 32.78 | 71.34 | 3.56 | 0.71 | 4.27 | 4.7 |
| 17:43 | 3 | 35.5 | 21 | 66,667 | 0 | 16.27 | 0.09 | 16.42 | 45.24 | 4.84 | 0.71 | 4.83 | 5.31 |
| 17:42 | 3 | 35.7 | 20 | 66,710 | 0 | 20.74 | 0.08 | 20.12 | 64.61 | 4.75 | 0.71 | 4.27 | 4.7 |
| 17:41 | 3 | 35.8 | 20 | 66,708 | 0 | 20 | 0.06 | 17.77 | 67.57 | 4.57 | 1.43 | 5.39 | 5.93 |
| 17:40 | 3 | 35.9 | 20 | 66,702 | 0 | 23.29 | 0.05 | 28.16 | 68.81 | 4.75 | 0.71 | 4.29 | 4.72 |